Řízení letového provozu České republiky
Letiste: LKLN Aktualizace: 25.07.2016 06:06:03  UTC
 METAR LKLN 25.07. 06:00 ...
METAR LKLN 250600Z AUTO 29001KT 1600 BR OVC002 18/18 Q1019=